aviador You're here:

YPPD Decoded Metar

PORT HEDLAND in AUSTRALIA
Report Time2018-01-16 21:00:00
UTC Time2018-01-16 21:21:48
Flight Rules vfr VFR
Wind170° at 07 kt
W.Decomp.*RWY 18: 6.9 kt HW 1.3 kt LCW
RWY 14: 6.1 kt HW 3.4 kt RCW
W.Rank170° ranks 11
Current wind is above 170° avg. (6.8)
Visibility9999 m
Phenomena:Light Rain
Clouds:N/A
Expected CloudBase > 1,600 ft AGL from Temp-Dew spread
CeilingNone
Temp28°C (ISA +13)
Dew Point24°C (79% RH)
Heat Index31.9°C
QNH1005 hPa
Density Alt2,182 ft
Elevation20 ft
Report Wrong Elevation
Raw Report
METAR YPPD 162100Z AUTO 17007KT 9999 -RA NCD 28/24 Q1005=

Extra information for YPPD:More info

Metar Taf Metar & Taf Last 4 Metars F.Rules Stats Wind Profile Meteogram Temp Stats Airport Information Weather charts Add Link Nearby VenuesMetar ALERT Operation Metar Decoded Social comments